sensor_id;sensor_type;location;lat;lon;timestamp;P1;durP1;ratioP1;P2;durP2;ratioP2
32026;SDS011;18543;50.848;4.596;2023-01-09T00:02:06;0.50;;;0.43;;
32026;SDS011;18543;50.848;4.596;2023-01-09T00:07:00;0.75;;;0.47;;
32026;SDS011;18543;50.848;4.596;2023-01-09T00:09:28;0.50;;;0.50;;
32026;SDS011;18543;50.848;4.596;2023-01-09T00:11:55;0.50;;;0.40;;
32026;SDS011;18543;50.848;4.596;2023-01-09T00:14:22;0.55;;;0.55;;
32026;SDS011;18543;50.848;4.596;2023-01-09T00:16:49;0.52;;;0.50;;
32026;SDS011;18543;50.848;4.596;2023-01-09T00:19:16;0.90;;;0.60;;
32026;SDS011;18543;50.848;4.596;2023-01-09T00:21:43;0.60;;;0.50;;
32026;SDS011;18543;50.848;4.596;2023-01-09T00:24:09;0.75;;;0.40;;
32026;SDS011;18543;50.848;4.596;2023-01-09T00:26:36;0.50;;;0.50;;
32026;SDS011;18543;50.848;4.596;2023-01-09T00:29:03;0.60;;;0.50;;
32026;SDS011;18543;50.848;4.596;2023-01-09T00:31:32;0.73;;;0.60;;
32026;SDS011;18543;50.848;4.596;2023-01-09T00:34:04;0.50;;;0.50;;
32026;SDS011;18543;50.848;4.596;2023-01-09T00:36:32;0.60;;;0.60;;
32026;SDS011;18543;50.848;4.596;2023-01-09T00:38:59;0.40;;;0.40;;
32026;SDS011;18543;50.848;4.596;2023-01-09T00:41:27;0.80;;;0.52;;
32026;SDS011;18543;50.848;4.596;2023-01-09T00:44:01;1.15;;;0.60;;
32026;SDS011;18543;50.848;4.596;2023-01-09T00:46:41;0.80;;;0.50;;
32026;SDS011;18543;50.848;4.596;2023-01-09T00:49:11;0.60;;;0.60;;
32026;SDS011;18543;50.848;4.596;2023-01-09T00:51:40;0.80;;;0.40;;
32026;SDS011;18543;50.848;4.596;2023-01-09T00:54:08;0.82;;;0.55;;
32026;SDS011;18543;50.848;4.596;2023-01-09T00:56:37;0.40;;;0.40;;
32026;SDS011;18543;50.848;4.596;2023-01-09T00:59:04;1.00;;;0.50;;
32026;SDS011;18543;50.848;4.596;2023-01-09T01:01:32;0.50;;;0.50;;
32026;SDS011;18543;50.848;4.596;2023-01-09T01:03:59;0.63;;;0.60;;
32026;SDS011;18543;50.848;4.596;2023-01-09T01:06:46;1.10;;;0.68;;
32026;SDS011;18543;50.848;4.596;2023-01-09T01:09:31;0.50;;;0.50;;
32026;SDS011;18543;50.848;4.596;2023-01-09T01:11:59;0.50;;;0.50;;
32026;SDS011;18543;50.848;4.596;2023-01-09T01:14:26;0.50;;;0.50;;
32026;SDS011;18543;50.848;4.596;2023-01-09T01:16:53;0.50;;;0.50;;
32026;SDS011;18543;50.848;4.596;2023-01-09T01:19:20;0.85;;;0.40;;
32026;SDS011;18543;50.848;4.596;2023-01-09T01:21:46;1.30;;;0.50;;
32026;SDS011;18543;50.848;4.596;2023-01-09T01:24:16;0.60;;;0.60;;
32026;SDS011;18543;50.848;4.596;2023-01-09T01:26:46;1.83;;;0.57;;
32026;SDS011;18543;50.848;4.596;2023-01-09T01:29:13;0.40;;;0.40;;
32026;SDS011;18543;50.848;4.596;2023-01-09T01:31:39;0.60;;;0.60;;
32026;SDS011;18543;50.848;4.596;2023-01-09T01:34:08;0.50;;;0.50;;
32026;SDS011;18543;50.848;4.596;2023-01-09T01:36:35;0.40;;;0.40;;
32026;SDS011;18543;50.848;4.596;2023-01-09T01:39:02;0.40;;;0.40;;
32026;SDS011;18543;50.848;4.596;2023-01-09T01:41:29;0.63;;;0.40;;
32026;SDS011;18543;50.848;4.596;2023-01-09T01:44:00;0.60;;;0.60;;
32026;SDS011;18543;50.848;4.596;2023-01-09T01:46:29;0.50;;;0.50;;
32026;SDS011;18543;50.848;4.596;2023-01-09T01:49:11;0.50;;;0.50;;
32026;SDS011;18543;50.848;4.596;2023-01-09T01:51:42;0.50;;;0.50;;
32026;SDS011;18543;50.848;4.596;2023-01-09T01:54:13;0.50;;;0.50;;
32026;SDS011;18543;50.848;4.596;2023-01-09T01:56:45;0.30;;;0.30;;
32026;SDS011;18543;50.848;4.596;2023-01-09T01:59:23;0.75;;;0.55;;
32026;SDS011;18543;50.848;4.596;2023-01-09T02:02:16;0.50;;;0.50;;
32026;SDS011;18543;50.848;4.596;2023-01-09T02:04:46;0.55;;;0.55;;
32026;SDS011;18543;50.848;4.596;2023-01-09T02:07:16;0.50;;;0.50;;
32026;SDS011;18543;50.848;4.596;2023-01-09T02:09:43;0.65;;;0.50;;
32026;SDS011;18543;50.848;4.596;2023-01-09T02:12:28;0.85;;;0.57;;
32026;SDS011;18543;50.848;4.596;2023-01-09T02:14:59;0.68;;;0.60;;
32026;SDS011;18543;50.848;4.596;2023-01-09T02:20:38;1.05;;;0.47;;
32026;SDS011;18543;50.848;4.596;2023-01-09T02:37:43;0.60;;;0.60;;
32026;SDS011;18543;50.848;4.596;2023-01-09T02:42:58;0.80;;;0.60;;
32026;SDS011;18543;50.848;4.596;2023-01-09T02:45:27;0.60;;;0.50;;
32026;SDS011;18543;50.848;4.596;2023-01-09T02:47:53;0.88;;;0.50;;
32026;SDS011;18543;50.848;4.596;2023-01-09T02:50:35;0.82;;;0.47;;
32026;SDS011;18543;50.848;4.596;2023-01-09T03:01:24;0.40;;;0.40;;
32026;SDS011;18543;50.848;4.596;2023-01-09T03:09:51;0.65;;;0.57;;
32026;SDS011;18543;50.848;4.596;2023-01-09T03:12:29;0.50;;;0.50;;
32026;SDS011;18543;50.848;4.596;2023-01-09T03:14:58;0.40;;;0.40;;
32026;SDS011;18543;50.848;4.596;2023-01-09T03:17:28;1.05;;;0.50;;
32026;SDS011;18543;50.848;4.596;2023-01-09T03:20:02;0.50;;;0.50;;
32026;SDS011;18543;50.848;4.596;2023-01-09T03:22:32;1.08;;;0.50;;
32026;SDS011;18543;50.848;4.596;2023-01-09T03:24:59;0.40;;;0.40;;
32026;SDS011;18543;50.848;4.596;2023-01-09T03:27:26;0.70;;;0.60;;
32026;SDS011;18543;50.848;4.596;2023-01-09T03:29:53;0.60;;;0.60;;
32026;SDS011;18543;50.848;4.596;2023-01-09T03:32:21;0.50;;;0.50;;
32026;SDS011;18543;50.848;4.596;2023-01-09T03:34:48;0.60;;;0.60;;
32026;SDS011;18543;50.848;4.596;2023-01-09T03:37:15;0.60;;;0.60;;
32026;SDS011;18543;50.848;4.596;2023-01-09T03:39:44;0.50;;;0.50;;
32026;SDS011;18543;50.848;4.596;2023-01-09T03:42:11;0.40;;;0.40;;
32026;SDS011;18543;50.848;4.596;2023-01-09T03:44:38;0.40;;;0.40;;
32026;SDS011;18543;50.848;4.596;2023-01-09T03:47:04;0.52;;;0.40;;
32026;SDS011;18543;50.848;4.596;2023-01-09T03:49:31;0.50;;;0.50;;
32026;SDS011;18543;50.848;4.596;2023-01-09T03:51:58;0.68;;;0.50;;
32026;SDS011;18543;50.848;4.596;2023-01-09T03:54:25;0.50;;;0.50;;
32026;SDS011;18543;50.848;4.596;2023-01-09T03:56:52;0.60;;;0.50;;
32026;SDS011;18543;50.848;4.596;2023-01-09T03:59:18;0.50;;;0.50;;
32026;SDS011;18543;50.848;4.596;2023-01-09T04:01:45;0.40;;;0.40;;
32026;SDS011;18543;50.848;4.596;2023-01-09T04:04:12;0.68;;;0.50;;
32026;SDS011;18543;50.848;4.596;2023-01-09T04:06:39;0.60;;;0.60;;
32026;SDS011;18543;50.848;4.596;2023-01-09T04:09:06;0.65;;;0.63;;
32026;SDS011;18543;50.848;4.596;2023-01-09T04:11:33;0.50;;;0.50;;
32026;SDS011;18543;50.848;4.596;2023-01-09T04:13:59;0.88;;;0.52;;
32026;SDS011;18543;50.848;4.596;2023-01-09T04:16:26;1.02;;;0.60;;
32026;SDS011;18543;50.848;4.596;2023-01-09T04:18:53;0.77;;;0.40;;
32026;SDS011;18543;50.848;4.596;2023-01-09T04:21:20;0.98;;;0.60;;
32026;SDS011;18543;50.848;4.596;2023-01-09T04:23:46;0.47;;;0.47;;
32026;SDS011;18543;50.848;4.596;2023-01-09T04:26:13;0.70;;;0.60;;
32026;SDS011;18543;50.848;4.596;2023-01-09T04:28:40;0.50;;;0.50;;
32026;SDS011;18543;50.848;4.596;2023-01-09T04:31:07;0.70;;;0.50;;
32026;SDS011;18543;50.848;4.596;2023-01-09T04:33:34;0.60;;;0.60;;
32026;SDS011;18543;50.848;4.596;2023-01-09T04:36:01;0.50;;;0.50;;
32026;SDS011;18543;50.848;4.596;2023-01-09T04:38:28;1.10;;;0.65;;
32026;SDS011;18543;50.848;4.596;2023-01-09T04:40:55;0.70;;;0.60;;
32026;SDS011;18543;50.848;4.596;2023-01-09T04:43:21;0.60;;;0.60;;
32026;SDS011;18543;50.848;4.596;2023-01-09T04:45:48;1.15;;;0.70;;
32026;SDS011;18543;50.848;4.596;2023-01-09T04:48:15;0.85;;;0.60;;
32026;SDS011;18543;50.848;4.596;2023-01-09T04:50:43;1.30;;;0.73;;
32026;SDS011;18543;50.848;4.596;2023-01-09T04:53:10;0.90;;;0.60;;
32026;SDS011;18543;50.848;4.596;2023-01-09T04:55:38;1.20;;;0.67;;
32026;SDS011;18543;50.848;4.596;2023-01-09T04:58:06;1.25;;;0.68;;
32026;SDS011;18543;50.848;4.596;2023-01-09T05:00:33;1.10;;;0.70;;
32026;SDS011;18543;50.848;4.596;2023-01-09T05:03:00;1.77;;;0.60;;
32026;SDS011;18543;50.848;4.596;2023-01-09T05:05:28;1.10;;;0.60;;
32026;SDS011;18543;50.848;4.596;2023-01-09T05:07:55;1.13;;;0.70;;
32026;SDS011;18543;50.848;4.596;2023-01-09T05:10:22;0.77;;;0.60;;
32026;SDS011;18543;50.848;4.596;2023-01-09T05:12:48;0.65;;;0.60;;
32026;SDS011;18543;50.848;4.596;2023-01-09T05:15:17;0.95;;;0.70;;
32026;SDS011;18543;50.848;4.596;2023-01-09T05:17:44;0.60;;;0.60;;
32026;SDS011;18543;50.848;4.596;2023-01-09T05:20:11;1.67;;;0.70;;
32026;SDS011;18543;50.848;4.596;2023-01-09T05:22:38;0.77;;;0.65;;
32026;SDS011;18543;50.848;4.596;2023-01-09T05:25:05;1.25;;;0.70;;
32026;SDS011;18543;50.848;4.596;2023-01-09T05:27:33;1.05;;;0.68;;
32026;SDS011;18543;50.848;4.596;2023-01-09T05:30:00;1.37;;;0.80;;
32026;SDS011;18543;50.848;4.596;2023-01-09T05:32:27;1.58;;;0.70;;
32026;SDS011;18543;50.848;4.596;2023-01-09T05:34:54;1.03;;;0.50;;
32026;SDS011;18543;50.848;4.596;2023-01-09T05:37:21;1.10;;;0.80;;
32026;SDS011;18543;50.848;4.596;2023-01-09T05:39:48;1.33;;;0.60;;
32026;SDS011;18543;50.848;4.596;2023-01-09T05:42:15;1.63;;;0.63;;
32026;SDS011;18543;50.848;4.596;2023-01-09T05:44:42;2.00;;;0.70;;
32026;SDS011;18543;50.848;4.596;2023-01-09T05:47:10;0.98;;;0.52;;
32026;SDS011;18543;50.848;4.596;2023-01-09T05:49:37;1.38;;;0.60;;
32026;SDS011;18543;50.848;4.596;2023-01-09T05:52:04;1.40;;;0.60;;
32026;SDS011;18543;50.848;4.596;2023-01-09T05:54:31;1.55;;;0.63;;
32026;SDS011;18543;50.848;4.596;2023-01-09T05:56:58;1.80;;;0.60;;
32026;SDS011;18543;50.848;4.596;2023-01-09T05:59:25;0.52;;;0.52;;
32026;SDS011;18543;50.848;4.596;2023-01-09T06:01:52;1.27;;;0.80;;
32026;SDS011;18543;50.848;4.596;2023-01-09T06:04:19;1.35;;;0.60;;
32026;SDS011;18543;50.848;4.596;2023-01-09T06:06:46;0.90;;;0.60;;
32026;SDS011;18543;50.848;4.596;2023-01-09T06:09:13;1.92;;;0.90;;
32026;SDS011;18543;50.848;4.596;2023-01-09T06:11:40;2.10;;;1.00;;
32026;SDS011;18543;50.848;4.596;2023-01-09T06:14:08;1.73;;;0.80;;
32026;SDS011;18543;50.848;4.596;2023-01-09T06:16:34;1.63;;;0.70;;
32026;SDS011;18543;50.848;4.596;2023-01-09T06:19:02;0.90;;;0.60;;
32026;SDS011;18543;50.848;4.596;2023-01-09T06:21:29;1.00;;;0.63;;
32026;SDS011;18543;50.848;4.596;2023-01-09T06:23:55;0.80;;;0.60;;
32026;SDS011;18543;50.848;4.596;2023-01-09T06:26:23;0.47;;;0.47;;
32026;SDS011;18543;50.848;4.596;2023-01-09T06:28:51;2.00;;;0.80;;
32026;SDS011;18543;50.848;4.596;2023-01-09T06:31:21;1.35;;;0.80;;
32026;SDS011;18543;50.848;4.596;2023-01-09T06:36:16;2.17;;;0.80;;
32026;SDS011;18543;50.848;4.596;2023-01-09T06:38:43;2.35;;;0.70;;
32026;SDS011;18543;50.848;4.596;2023-01-09T06:41:10;2.10;;;0.73;;
32026;SDS011;18543;50.848;4.596;2023-01-09T06:43:37;1.03;;;0.80;;
32026;SDS011;18543;50.848;4.596;2023-01-09T06:46:04;0.50;;;0.50;;
32026;SDS011;18543;50.848;4.596;2023-01-09T06:48:31;0.90;;;0.50;;
32026;SDS011;18543;50.848;4.596;2023-01-09T06:50:59;1.65;;;0.88;;
32026;SDS011;18543;50.848;4.596;2023-01-09T06:53:26;1.25;;;0.63;;
32026;SDS011;18543;50.848;4.596;2023-01-09T06:55:52;1.05;;;0.95;;
32026;SDS011;18543;50.848;4.596;2023-01-09T06:58:19;1.48;;;0.60;;
32026;SDS011;18543;50.848;4.596;2023-01-09T07:00:46;1.38;;;0.82;;
32026;SDS011;18543;50.848;4.596;2023-01-09T07:03:14;2.33;;;0.80;;
32026;SDS011;18543;50.848;4.596;2023-01-09T07:05:47;1.80;;;0.65;;
32026;SDS011;18543;50.848;4.596;2023-01-09T07:08:14;5.35;;;0.90;;
32026;SDS011;18543;50.848;4.596;2023-01-09T07:10:42;2.38;;;0.80;;
32026;SDS011;18543;50.848;4.596;2023-01-09T07:13:10;1.77;;;0.75;;
32026;SDS011;18543;50.848;4.596;2023-01-09T07:15:37;4.20;;;1.00;;
32026;SDS011;18543;50.848;4.596;2023-01-09T07:18:05;1.60;;;0.82;;
32026;SDS011;18543;50.848;4.596;2023-01-09T07:20:32;1.88;;;0.80;;
32026;SDS011;18543;50.848;4.596;2023-01-09T07:22:58;1.98;;;0.88;;
32026;SDS011;18543;50.848;4.596;2023-01-09T07:25:25;3.03;;;0.75;;
32026;SDS011;18543;50.848;4.596;2023-01-09T07:27:52;2.75;;;0.80;;
32026;SDS011;18543;50.848;4.596;2023-01-09T07:30:19;1.65;;;0.70;;
32026;SDS011;18543;50.848;4.596;2023-01-09T07:32:46;2.20;;;0.93;;
32026;SDS011;18543;50.848;4.596;2023-01-09T07:35:12;2.88;;;0.82;;
32026;SDS011;18543;50.848;4.596;2023-01-09T07:37:39;1.77;;;0.90;;
32026;SDS011;18543;50.848;4.596;2023-01-09T07:40:06;0.98;;;0.80;;
32026;SDS011;18543;50.848;4.596;2023-01-09T07:42:34;3.42;;;0.80;;
32026;SDS011;18543;50.848;4.596;2023-01-09T07:45:01;2.28;;;0.80;;
32026;SDS011;18543;50.848;4.596;2023-01-09T07:47:27;3.13;;;0.73;;
32026;SDS011;18543;50.848;4.596;2023-01-09T07:49:54;1.42;;;0.80;;
32026;SDS011;18543;50.848;4.596;2023-01-09T07:52:22;1.33;;;0.63;;
32026;SDS011;18543;50.848;4.596;2023-01-09T07:54:49;1.00;;;0.60;;
32026;SDS011;18543;50.848;4.596;2023-01-09T07:57:16;4.25;;;1.05;;
32026;SDS011;18543;50.848;4.596;2023-01-09T07:59:42;2.28;;;0.90;;
32026;SDS011;18543;50.848;4.596;2023-01-09T08:02:10;1.80;;;0.93;;
32026;SDS011;18543;50.848;4.596;2023-01-09T08:04:37;2.63;;;0.75;;
32026;SDS011;18543;50.848;4.596;2023-01-09T08:07:04;3.08;;;0.80;;
32026;SDS011;18543;50.848;4.596;2023-01-09T08:09:31;6.10;;;1.10;;
32026;SDS011;18543;50.848;4.596;2023-01-09T08:11:58;1.97;;;1.00;;
32026;SDS011;18543;50.848;4.596;2023-01-09T08:14:29;3.65;;;0.80;;
32026;SDS011;18543;50.848;4.596;2023-01-09T08:16:56;2.50;;;0.90;;
32026;SDS011;18543;50.848;4.596;2023-01-09T08:19:24;2.50;;;1.00;;
32026;SDS011;18543;50.848;4.596;2023-01-09T08:21:50;2.20;;;0.90;;
32026;SDS011;18543;50.848;4.596;2023-01-09T08:24:17;2.20;;;0.88;;
32026;SDS011;18543;50.848;4.596;2023-01-09T08:26:44;2.70;;;1.00;;
32026;SDS011;18543;50.848;4.596;2023-01-09T08:29:11;2.20;;;0.90;;
32026;SDS011;18543;50.848;4.596;2023-01-09T08:31:38;1.02;;;0.70;;
32026;SDS011;18543;50.848;4.596;2023-01-09T08:34:07;3.03;;;1.10;;
32026;SDS011;18543;50.848;4.596;2023-01-09T08:36:35;2.20;;;1.05;;
32026;SDS011;18543;50.848;4.596;2023-01-09T08:39:02;1.80;;;1.00;;
32026;SDS011;18543;50.848;4.596;2023-01-09T08:41:29;2.47;;;0.90;;
32026;SDS011;18543;50.848;4.596;2023-01-09T08:44:15;2.50;;;1.10;;
32026;SDS011;18543;50.848;4.596;2023-01-09T08:47:00;2.20;;;0.80;;
32026;SDS011;18543;50.848;4.596;2023-01-09T08:49:34;4.05;;;0.80;;
32026;SDS011;18543;50.848;4.596;2023-01-09T08:52:04;2.38;;;0.95;;
32026;SDS011;18543;50.848;4.596;2023-01-09T08:54:32;3.75;;;0.93;;
32026;SDS011;18543;50.848;4.596;2023-01-09T08:56:59;1.02;;;0.70;;
32026;SDS011;18543;50.848;4.596;2023-01-09T08:59:26;2.00;;;0.80;;
32026;SDS011;18543;50.848;4.596;2023-01-09T09:01:53;1.85;;;0.80;;
32026;SDS011;18543;50.848;4.596;2023-01-09T09:04:20;1.52;;;0.77;;
32026;SDS011;18543;50.848;4.596;2023-01-09T09:06:47;1.23;;;0.80;;
32026;SDS011;18543;50.848;4.596;2023-01-09T09:09:14;1.38;;;0.60;;
32026;SDS011;18543;50.848;4.596;2023-01-09T09:11:41;1.52;;;0.60;;
32026;SDS011;18543;50.848;4.596;2023-01-09T09:14:08;0.80;;;0.80;;
32026;SDS011;18543;50.848;4.596;2023-01-09T09:16:54;2.35;;;0.80;;
32026;SDS011;18543;50.848;4.596;2023-01-09T09:19:20;1.83;;;0.68;;
32026;SDS011;18543;50.848;4.596;2023-01-09T09:21:47;1.27;;;0.70;;
32026;SDS011;18543;50.848;4.596;2023-01-09T09:24:14;1.67;;;0.80;;
32026;SDS011;18543;50.848;4.596;2023-01-09T09:26:41;1.17;;;0.73;;
32026;SDS011;18543;50.848;4.596;2023-01-09T09:29:10;0.82;;;0.60;;
32026;SDS011;18543;50.848;4.596;2023-01-09T09:31:37;1.00;;;0.60;;
32026;SDS011;18543;50.848;4.596;2023-01-09T09:34:05;1.20;;;0.60;;
32026;SDS011;18543;50.848;4.596;2023-01-09T09:38:59;1.40;;;0.80;;
32026;SDS011;18543;50.848;4.596;2023-01-09T09:55:52;1.83;;;0.90;;
32026;SDS011;18543;50.848;4.596;2023-01-09T09:58:21;2.35;;;0.75;;
32026;SDS011;18543;50.848;4.596;2023-01-09T10:00:55;0.80;;;0.70;;
32026;SDS011;18543;50.848;4.596;2023-01-09T10:03:32;0.93;;;0.68;;
32026;SDS011;18543;50.848;4.596;2023-01-09T10:06:26;0.80;;;0.65;;
32026;SDS011;18543;50.848;4.596;2023-01-09T10:11:40;1.52;;;0.80;;
32026;SDS011;18543;50.848;4.596;2023-01-09T10:14:18;2.03;;;0.80;;
32026;SDS011;18543;50.848;4.596;2023-01-09T10:22:44;0.88;;;0.70;;
32026;SDS011;18543;50.848;4.596;2023-01-09T10:37:09;1.02;;;0.65;;
32026;SDS011;18543;50.848;4.596;2023-01-09T10:42:39;0.85;;;0.70;;
32026;SDS011;18543;50.848;4.596;2023-01-09T10:45:22;1.13;;;0.60;;
32026;SDS011;18543;50.848;4.596;2023-01-09T10:47:49;1.98;;;0.50;;
32026;SDS011;18543;50.848;4.596;2023-01-09T10:50:23;1.90;;;0.60;;
32026;SDS011;18543;50.848;4.596;2023-01-09T10:52:54;1.13;;;0.47;;
32026;SDS011;18543;50.848;4.596;2023-01-09T10:55:34;0.95;;;0.70;;
32026;SDS011;18543;50.848;4.596;2023-01-09T10:58:11;2.03;;;0.75;;
32026;SDS011;18543;50.848;4.596;2023-01-09T11:00:40;1.27;;;0.55;;
32026;SDS011;18543;50.848;4.596;2023-01-09T11:03:11;0.98;;;0.60;;
32026;SDS011;18543;50.848;4.596;2023-01-09T11:05:40;1.65;;;0.80;;
32026;SDS011;18543;50.848;4.596;2023-01-09T11:13:16;0.63;;;0.63;;
32026;SDS011;18543;50.848;4.596;2023-01-09T11:18:31;0.80;;;0.57;;
32026;SDS011;18543;50.848;4.596;2023-01-09T11:23:39;0.77;;;0.60;;
32026;SDS011;18543;50.848;4.596;2023-01-09T11:26:08;0.77;;;0.68;;
32026;SDS011;18543;50.848;4.596;2023-01-09T11:31:57;1.42;;;0.60;;
32026;SDS011;18543;50.848;4.596;2023-01-09T11:34:34;0.75;;;0.60;;
32026;SDS011;18543;50.848;4.596;2023-01-09T11:37:05;0.80;;;0.65;;
32026;SDS011;18543;50.848;4.596;2023-01-09T11:39:35;0.60;;;0.50;;
32026;SDS011;18543;50.848;4.596;2023-01-09T11:42:08;1.05;;;0.63;;
32026;SDS011;18543;50.848;4.596;2023-01-09T11:45:16;0.82;;;0.60;;
32026;SDS011;18543;50.848;4.596;2023-01-09T11:47:44;1.10;;;0.63;;
32026;SDS011;18543;50.848;4.596;2023-01-09T11:50:18;0.80;;;0.50;;
32026;SDS011;18543;50.848;4.596;2023-01-09T11:52:46;2.72;;;0.70;;
32026;SDS011;18543;50.848;4.596;2023-01-09T11:55:36;0.50;;;0.50;;
32026;SDS011;18543;50.848;4.596;2023-01-09T11:58:17;0.50;;;0.50;;
32026;SDS011;18543;50.848;4.596;2023-01-09T12:08:55;0.60;;;0.50;;
32026;SDS011;18543;50.848;4.596;2023-01-09T12:14:27;0.77;;;0.60;;
32026;SDS011;18543;50.848;4.596;2023-01-09T12:17:01;1.10;;;0.60;;
32026;SDS011;18543;50.848;4.596;2023-01-09T12:22:44;0.80;;;0.60;;
32026;SDS011;18543;50.848;4.596;2023-01-09T12:31:21;1.17;;;0.60;;
32026;SDS011;18543;50.848;4.596;2023-01-09T12:39:38;1.58;;;0.75;;
32026;SDS011;18543;50.848;4.596;2023-01-09T12:45:02;0.50;;;0.50;;
32026;SDS011;18543;50.848;4.596;2023-01-09T12:47:52;0.73;;;0.60;;
32026;SDS011;18543;50.848;4.596;2023-01-09T12:50:35;1.02;;;0.52;;
32026;SDS011;18543;50.848;4.596;2023-01-09T12:53:20;0.43;;;0.40;;
32026;SDS011;18543;50.848;4.596;2023-01-09T13:01:13;0.60;;;0.60;;
32026;SDS011;18543;50.848;4.596;2023-01-09T13:03:48;1.48;;;0.60;;
32026;SDS011;18543;50.848;4.596;2023-01-09T13:06:26;0.80;;;0.60;;
32026;SDS011;18543;50.848;4.596;2023-01-09T13:09:05;0.63;;;0.55;;
32026;SDS011;18543;50.848;4.596;2023-01-09T13:11:41;2.78;;;0.80;;
32026;SDS011;18543;50.848;4.596;2023-01-09T13:16:59;1.73;;;0.70;;
32026;SDS011;18543;50.848;4.596;2023-01-09T13:19:36;0.98;;;0.70;;
32026;SDS011;18543;50.848;4.596;2023-01-09T13:22:05;0.80;;;0.70;;
32026;SDS011;18543;50.848;4.596;2023-01-09T13:27:16;1.08;;;0.70;;
32026;SDS011;18543;50.848;4.596;2023-01-09T13:29:49;0.73;;;0.57;;
32026;SDS011;18543;50.848;4.596;2023-01-09T13:35:12;1.00;;;0.80;;
32026;SDS011;18543;50.848;4.596;2023-01-09T13:37:41;0.90;;;0.70;;
32026;SDS011;18543;50.848;4.596;2023-01-09T13:42:55;1.10;;;0.60;;
32026;SDS011;18543;50.848;4.596;2023-01-09T13:45:35;1.20;;;0.75;;
32026;SDS011;18543;50.848;4.596;2023-01-09T13:50:40;0.85;;;0.60;;
32026;SDS011;18543;50.848;4.596;2023-01-09T13:53:41;1.00;;;0.70;;
32026;SDS011;18543;50.848;4.596;2023-01-09T14:06:35;1.38;;;0.70;;
32026;SDS011;18543;50.848;4.596;2023-01-09T14:11:38;1.20;;;0.70;;
32026;SDS011;18543;50.848;4.596;2023-01-09T14:14:06;1.38;;;0.70;;
32026;SDS011;18543;50.848;4.596;2023-01-09T14:16:48;0.98;;;0.80;;
32026;SDS011;18543;50.848;4.596;2023-01-09T14:19:20;0.70;;;0.70;;
32026;SDS011;18543;50.848;4.596;2023-01-09T14:21:55;1.55;;;0.73;;
32026;SDS011;18543;50.848;4.596;2023-01-09T14:24:27;1.50;;;0.88;;
32026;SDS011;18543;50.848;4.596;2023-01-09T14:26:59;1.17;;;0.70;;
32026;SDS011;18543;50.848;4.596;2023-01-09T14:34:55;1.02;;;0.73;;
32026;SDS011;18543;50.848;4.596;2023-01-09T14:37:33;1.20;;;0.80;;
32026;SDS011;18543;50.848;4.596;2023-01-09T14:40:06;1.00;;;0.80;;
32026;SDS011;18543;50.848;4.596;2023-01-09T14:45:13;0.98;;;0.70;;
32026;SDS011;18543;50.848;4.596;2023-01-09T14:47:45;0.90;;;0.70;;
32026;SDS011;18543;50.848;4.596;2023-01-09T14:50:36;1.20;;;0.90;;
32026;SDS011;18543;50.848;4.596;2023-01-09T15:03:42;1.23;;;1.00;;
32026;SDS011;18543;50.848;4.596;2023-01-09T15:06:17;0.95;;;0.77;;
32026;SDS011;18543;50.848;4.596;2023-01-09T15:08:53;1.20;;;0.88;;
32026;SDS011;18543;50.848;4.596;2023-01-09T15:11:30;1.63;;;0.82;;
32026;SDS011;18543;50.848;4.596;2023-01-09T15:13:58;0.88;;;0.80;;
32026;SDS011;18543;50.848;4.596;2023-01-09T15:16:30;1.00;;;0.90;;
32026;SDS011;18543;50.848;4.596;2023-01-09T15:18:59;1.60;;;1.30;;
32026;SDS011;18543;50.848;4.596;2023-01-09T15:21:29;1.05;;;0.82;;
32026;SDS011;18543;50.848;4.596;2023-01-09T15:26:42;1.95;;;1.10;;
32026;SDS011;18543;50.848;4.596;2023-01-09T15:29:18;2.50;;;1.00;;
32026;SDS011;18543;50.848;4.596;2023-01-09T15:31:46;1.45;;;1.13;;
32026;SDS011;18543;50.848;4.596;2023-01-09T15:34:17;2.03;;;1.17;;
32026;SDS011;18543;50.848;4.596;2023-01-09T15:36:47;1.48;;;1.08;;
32026;SDS011;18543;50.848;4.596;2023-01-09T15:39:17;2.28;;;1.10;;
32026;SDS011;18543;50.848;4.596;2023-01-09T15:41:53;1.23;;;1.00;;
32026;SDS011;18543;50.848;4.596;2023-01-09T15:44:40;1.65;;;1.30;;
32026;SDS011;18543;50.848;4.596;2023-01-09T15:47:14;2.45;;;1.52;;
32026;SDS011;18543;50.848;4.596;2023-01-09T15:49:44;1.42;;;1.30;;
32026;SDS011;18543;50.848;4.596;2023-01-09T15:52:12;2.10;;;1.27;;
32026;SDS011;18543;50.848;4.596;2023-01-09T15:54:42;1.42;;;1.13;;
32026;SDS011;18543;50.848;4.596;2023-01-09T15:59:55;2.08;;;1.40;;
32026;SDS011;18543;50.848;4.596;2023-01-09T16:02:23;1.40;;;1.17;;
32026;SDS011;18543;50.848;4.596;2023-01-09T16:05:15;2.35;;;1.55;;
32026;SDS011;18543;50.848;4.596;2023-01-09T16:07:44;3.60;;;2.15;;
32026;SDS011;18543;50.848;4.596;2023-01-09T16:10:22;3.17;;;2.00;;
32026;SDS011;18543;50.848;4.596;2023-01-09T16:12:57;2.22;;;1.60;;
32026;SDS011;18543;50.848;4.596;2023-01-09T16:15:24;3.28;;;1.80;;
32026;SDS011;18543;50.848;4.596;2023-01-09T16:20:40;2.35;;;1.70;;
32026;SDS011;18543;50.848;4.596;2023-01-09T16:23:21;1.92;;;1.70;;
32026;SDS011;18543;50.848;4.596;2023-01-09T16:26:02;2.10;;;1.50;;
32026;SDS011;18543;50.848;4.596;2023-01-09T16:28:34;2.10;;;1.60;;
32026;SDS011;18543;50.848;4.596;2023-01-09T16:31:06;2.08;;;1.50;;
32026;SDS011;18543;50.848;4.596;2023-01-09T16:33:46;3.20;;;1.52;;
32026;SDS011;18543;50.848;4.596;2023-01-09T16:36:17;2.08;;;1.38;;
32026;SDS011;18543;50.848;4.596;2023-01-09T16:38:44;2.80;;;1.70;;
32026;SDS011;18543;50.848;4.596;2023-01-09T16:41:20;1.65;;;1.38;;
32026;SDS011;18543;50.848;4.596;2023-01-09T16:44:07;2.03;;;1.35;;
32026;SDS011;18543;50.848;4.596;2023-01-09T16:46:36;1.52;;;1.30;;
32026;SDS011;18543;50.848;4.596;2023-01-09T16:49:20;2.47;;;1.38;;
32026;SDS011;18543;50.848;4.596;2023-01-09T16:51:49;1.90;;;1.40;;
32026;SDS011;18543;50.848;4.596;2023-01-09T16:54:16;3.20;;;1.40;;
32026;SDS011;18543;50.848;4.596;2023-01-09T16:56:47;2.55;;;1.40;;
32026;SDS011;18543;50.848;4.596;2023-01-09T16:59:17;1.77;;;1.30;;
32026;SDS011;18543;50.848;4.596;2023-01-09T17:01:46;1.63;;;1.40;;
32026;SDS011;18543;50.848;4.596;2023-01-09T17:04:14;2.05;;;1.40;;
32026;SDS011;18543;50.848;4.596;2023-01-09T17:06:42;2.60;;;1.33;;
32026;SDS011;18543;50.848;4.596;2023-01-09T17:09:10;2.85;;;1.40;;
32026;SDS011;18543;50.848;4.596;2023-01-09T17:11:38;1.38;;;1.10;;
32026;SDS011;18543;50.848;4.596;2023-01-09T17:14:06;1.90;;;1.20;;
32026;SDS011;18543;50.848;4.596;2023-01-09T17:16:36;2.53;;;1.23;;
32026;SDS011;18543;50.848;4.596;2023-01-09T17:19:03;1.65;;;1.30;;
32026;SDS011;18543;50.848;4.596;2023-01-09T17:21:31;3.05;;;1.50;;
32026;SDS011;18543;50.848;4.596;2023-01-09T17:23:58;2.00;;;1.50;;
32026;SDS011;18543;50.848;4.596;2023-01-09T17:26:47;2.72;;;1.40;;
32026;SDS011;18543;50.848;4.596;2023-01-09T17:29:34;1.67;;;1.35;;
32026;SDS011;18543;50.848;4.596;2023-01-09T17:32:01;2.27;;;1.40;;
32026;SDS011;18543;50.848;4.596;2023-01-09T17:34:29;2.33;;;1.30;;
32026;SDS011;18543;50.848;4.596;2023-01-09T17:36:55;1.52;;;1.27;;
32026;SDS011;18543;50.848;4.596;2023-01-09T17:39:22;2.33;;;1.40;;
32026;SDS011;18543;50.848;4.596;2023-01-09T17:41:50;1.60;;;1.30;;
32026;SDS011;18543;50.848;4.596;2023-01-09T17:44:17;1.67;;;1.27;;
32026;SDS011;18543;50.848;4.596;2023-01-09T17:46:43;1.27;;;0.85;;
32026;SDS011;18543;50.848;4.596;2023-01-09T17:49:18;2.13;;;1.20;;
32026;SDS011;18543;50.848;4.596;2023-01-09T17:51:46;2.20;;;1.02;;
32026;SDS011;18543;50.848;4.596;2023-01-09T17:54:13;3.38;;;1.40;;
32026;SDS011;18543;50.848;4.596;2023-01-09T17:56:44;2.20;;;1.20;;
32026;SDS011;18543;50.848;4.596;2023-01-09T17:59:14;2.38;;;1.13;;
32026;SDS011;18543;50.848;4.596;2023-01-09T18:01:41;2.03;;;1.17;;
32026;SDS011;18543;50.848;4.596;2023-01-09T18:06:36;1.87;;;1.00;;
32026;SDS011;18543;50.848;4.596;2023-01-09T18:09:04;2.40;;;1.30;;
32026;SDS011;18543;50.848;4.596;2023-01-09T18:11:32;2.03;;;1.10;;